createdAt,value
2018-01-12T00:01:06.854Z,44.10
2018-01-12T00:03:34.913Z,43.43
2018-01-12T00:06:03.758Z,45.07
2018-01-12T00:08:31.814Z,38.07
2018-01-12T00:11:00.318Z,50.28
2018-01-12T00:13:28.502Z,43.97
2018-01-12T00:15:56.561Z,51.90
2018-01-12T00:18:24.630Z,33.93
2018-01-12T00:20:52.676Z,49.43
2018-01-12T00:23:21.517Z,36.37
2018-01-12T00:25:49.569Z,41.47
2018-01-12T00:28:19.193Z,46.57
2018-01-12T00:30:47.698Z,55.10
2018-01-12T00:33:15.865Z,46.50
2018-01-12T00:35:43.941Z,41.87
2018-01-12T00:38:12.009Z,45.10
2018-01-12T00:40:40.065Z,41.83
2018-01-12T00:43:08.117Z,37.07
2018-01-12T00:45:37.750Z,41.90
2018-01-12T00:48:05.799Z,44.38
2018-01-12T00:50:34.631Z,31.65
2018-01-12T00:53:02.677Z,43.57
2018-01-12T00:55:31.501Z,25.63
2018-01-12T00:57:59.558Z,46.83
2018-01-12T01:00:27.679Z,38.30
2018-01-12T01:02:55.726Z,42.00
2018-01-12T01:05:23.834Z,45.87
2018-01-12T01:07:51.974Z,37.97
2018-01-12T01:10:21.353Z,40.63
2018-01-12T01:12:50.162Z,47.67
2018-01-12T01:15:18.390Z,40.70
2018-01-12T01:17:46.460Z,49.40
2018-01-12T01:20:14.542Z,36.93
2018-01-12T01:22:42.599Z,35.57
2018-01-12T01:25:10.658Z,46.07
2018-01-12T01:27:38.772Z,35.90
2018-01-12T01:30:06.950Z,43.33
2018-01-12T01:32:35.010Z,35.67
2018-01-12T01:35:03.110Z,46.23
2018-01-12T01:37:31.153Z,40.90
2018-01-12T01:40:00.072Z,29.73
2018-01-12T01:42:28.146Z,36.00
2018-01-12T01:44:56.230Z,42.60
2018-01-12T01:47:24.281Z,32.30
2018-01-12T01:49:53.198Z,43.77
2018-01-12T01:52:21.274Z,44.03
2018-01-12T01:54:49.343Z,50.00
2018-01-12T01:57:17.394Z,47.00
2018-01-12T01:59:45.450Z,44.50
2018-01-12T02:02:14.265Z,40.27
2018-01-12T02:04:42.342Z,49.50
2018-01-12T02:07:10.388Z,44.57
2018-01-12T02:09:39.238Z,44.30
2018-01-12T02:12:07.285Z,45.00
2018-01-12T02:14:35.390Z,52.17
2018-01-12T02:17:03.439Z,57.07
2018-01-12T02:19:31.556Z,50.87
2018-01-12T02:21:59.613Z,53.43
2018-01-12T02:24:28.218Z,50.57
2018-01-12T02:26:56.270Z,48.77
2018-01-12T02:29:24.345Z,52.63
2018-01-12T02:31:52.435Z,53.20
2018-01-12T02:34:20.515Z,50.83
2018-01-12T02:36:49.974Z,54.33
2018-01-12T02:39:19.233Z,55.60
2018-01-12T02:41:47.306Z,64.13
2018-01-12T02:44:15.361Z,58.03
2018-01-12T02:46:43.455Z,51.00
2018-01-12T02:49:11.513Z,67.53
2018-01-12T02:51:39.597Z,57.97
2018-01-12T02:54:07.682Z,60.80
2018-01-12T02:56:35.750Z,69.93
2018-01-12T02:59:03.794Z,61.43
2018-01-12T03:01:31.913Z,64.53
2018-01-12T03:03:59.981Z,54.97
2018-01-12T03:06:28.102Z,67.07
2018-01-12T03:08:56.949Z,56.63
2018-01-12T03:11:25.014Z,53.23
2018-01-12T03:13:53.063Z,55.30
2018-01-12T03:16:21.128Z,67.23
2018-01-12T03:18:49.783Z,55.67
2018-01-12T03:21:17.841Z,61.30
2018-01-12T03:23:45.921Z,49.60
2018-01-12T03:26:13.987Z,57.50
2018-01-12T03:28:42.217Z,44.83
2018-01-12T03:31:11.042Z,58.77
2018-01-12T03:33:39.093Z,67.30
2018-01-12T03:36:07.925Z,62.90
2018-01-12T03:38:35.982Z,53.33
2018-01-12T03:41:04.097Z,50.10
2018-01-12T03:43:32.158Z,52.53
2018-01-12T03:46:00.252Z,59.47
2018-01-12T03:48:28.297Z,49.00
2018-01-12T03:50:56.358Z,57.17
2018-01-12T03:53:24.482Z,57.05
2018-01-12T03:55:52.551Z,65.93
2018-01-12T03:58:20.626Z,56.53
2018-01-12T04:00:48.693Z,58.67
2018-01-12T04:03:16.741Z,65.87
2018-01-12T04:05:44.863Z,56.93
2018-01-12T04:08:12.950Z,63.37
2018-01-12T04:10:43.224Z,61.37
2018-01-12T04:13:12.058Z,58.20
2018-01-12T04:15:40.118Z,70.03
2018-01-12T04:18:08.164Z,57.57
2018-01-12T04:20:36.288Z,58.90
2018-01-12T04:23:04.326Z,52.50
2018-01-12T04:25:32.388Z,55.10
2018-01-12T04:28:01.227Z,52.50
2018-01-12T04:30:29.306Z,50.20
2018-01-12T04:32:57.492Z,55.67
2018-01-12T04:35:25.670Z,58.97
2018-01-12T04:37:53.721Z,45.53
2018-01-12T04:40:21.814Z,49.80
2018-01-12T04:42:50.924Z,43.55
2018-01-12T04:45:18.995Z,52.07
2018-01-12T04:47:47.045Z,59.73
2018-01-12T04:50:15.137Z,54.53
2018-01-12T04:52:43.190Z,47.23
2018-01-12T04:55:11.298Z,51.97
2018-01-12T04:57:39.375Z,57.10
2018-01-12T05:00:07.459Z,52.27
2018-01-12T05:02:35.523Z,151.83
2018-01-12T05:05:03.606Z,58.23
2018-01-12T05:07:31.686Z,53.73
2018-01-12T05:09:59.862Z,54.57
2018-01-12T05:12:28.047Z,70.67
2018-01-12T05:14:56.181Z,59.00
2018-01-12T05:17:24.263Z,52.37
2018-01-12T05:19:52.324Z,44.70
2018-01-12T05:22:21.178Z,61.20
2018-01-12T05:24:49.238Z,50.00
2018-01-12T05:27:17.306Z,57.23
2018-01-12T05:29:45.365Z,51.93
2018-01-12T05:32:13.466Z,50.87
2018-01-12T05:34:41.537Z,45.73
2018-01-12T05:37:09.593Z,53.37
2018-01-12T05:39:37.642Z,57.37
2018-01-12T05:42:06.469Z,67.37
2018-01-12T05:44:34.562Z,42.70
2018-01-12T05:47:02.742Z,56.23
2018-01-12T05:49:30.818Z,53.47
2018-01-12T05:51:58.897Z,44.93
2018-01-12T05:54:26.965Z,38.33
2018-01-12T05:56:55.106Z,34.07
2018-01-12T05:59:23.154Z,37.73
2018-01-12T06:05:14.879Z,50.87
2018-01-12T06:07:43.730Z,37.00
2018-01-12T06:10:11.778Z,58.37
2018-01-12T06:12:39.889Z,40.97
2018-01-12T06:15:07.941Z,44.10
2018-01-12T06:17:36.419Z,51.50
2018-01-12T06:20:04.536Z,41.77
2018-01-12T06:22:32.594Z,40.07
2018-01-12T06:25:00.679Z,33.00
2018-01-12T06:27:28.760Z,33.17
2018-01-12T06:29:56.814Z,38.60
2018-01-12T06:32:24.877Z,31.33
2018-01-12T06:34:52.982Z,26.93
2018-01-12T06:37:21.489Z,39.75
2018-01-12T06:39:49.645Z,33.70
2018-01-12T06:42:17.714Z,30.50
2018-01-12T06:44:45.797Z,33.23
2018-01-12T06:47:13.865Z,31.57
2018-01-12T06:49:43.821Z,37.17
2018-01-12T06:52:11.873Z,22.20
2018-01-12T06:54:39.950Z,27.33
2018-01-12T06:57:08.021Z,25.70
2018-01-12T06:59:36.081Z,21.48
2018-01-12T07:02:04.250Z,19.77
2018-01-12T07:04:32.370Z,25.77
2018-01-12T07:07:00.529Z,26.70
2018-01-12T07:09:28.634Z,25.73
2018-01-12T07:11:56.684Z,26.60
2018-01-12T07:14:24.742Z,38.37
2018-01-12T07:16:52.803Z,30.60
2018-01-12T07:19:22.070Z,27.08
2018-01-12T07:22:07.824Z,29.67
2018-01-12T07:24:35.883Z,29.52
2018-01-12T07:27:03.946Z,29.70
2018-01-12T07:29:32.055Z,26.27
2018-01-12T07:32:00.234Z,38.30
2018-01-12T07:34:28.286Z,44.53
2018-01-12T07:36:56.358Z,23.62
2018-01-12T07:39:24.410Z,26.00
2018-01-12T07:41:52.480Z,24.80
2018-01-12T07:44:22.439Z,22.67
2018-01-12T07:46:50.506Z,21.87
2018-01-12T07:49:18.558Z,25.10
2018-01-12T07:51:47.394Z,34.97
2018-01-12T07:54:15.451Z,20.30
2018-01-12T07:56:43.515Z,31.40
2018-01-12T07:59:11.622Z,27.40
2018-01-12T08:01:45.301Z,26.93
2018-01-12T08:04:13.429Z,38.23
2018-01-12T08:06:41.591Z,23.57
2018-01-12T08:09:09.642Z,21.17
2018-01-12T08:11:37.733Z,29.90
2018-01-12T08:14:06.742Z,36.10
2018-01-12T08:16:34.793Z,25.80
2018-01-12T08:19:02.853Z,21.97
2018-01-12T08:21:30.961Z,25.73
2018-01-12T08:23:59.025Z,23.02
2018-01-12T08:26:27.113Z,28.10
2018-01-12T08:28:55.193Z,38.33
2018-01-12T08:31:23.266Z,31.37
2018-01-12T08:33:53.464Z,33.83
2018-01-12T08:36:22.184Z,29.45
2018-01-12T08:38:50.253Z,31.13
2018-01-12T08:41:19.326Z,30.67
2018-01-12T08:43:47.386Z,32.40
2018-01-12T08:46:16.200Z,31.07
2018-01-12T08:48:44.266Z,38.77
2018-01-12T08:51:12.383Z,33.77
2018-01-12T08:53:40.565Z,37.63
2018-01-12T08:56:08.970Z,30.03
2018-01-12T08:58:38.537Z,39.87
2018-01-12T09:01:06.642Z,29.60
2018-01-12T09:03:34.700Z,39.83
2018-01-12T09:06:02.753Z,33.07
2018-01-12T09:08:30.821Z,41.20
2018-01-12T09:10:58.869Z,39.30
2018-01-12T09:13:45.658Z,36.67
2018-01-12T09:16:13.726Z,35.80
2018-01-12T09:18:59.561Z,30.10
2018-01-12T09:21:27.608Z,30.92
2018-01-12T09:23:56.437Z,27.83
2018-01-12T09:26:24.485Z,24.23
2018-01-12T09:28:54.091Z,27.00
2018-01-12T09:31:39.682Z,27.35
2018-01-12T09:37:16.400Z,25.93
2018-01-12T09:39:45.323Z,29.60
2018-01-12T09:42:13.361Z,32.58
2018-01-12T09:44:41.429Z,36.50
2018-01-12T09:47:22.023Z,30.43
2018-01-12T09:49:50.103Z,32.43
2018-01-12T09:52:18.164Z,30.30
2018-01-12T09:54:46.237Z,34.13
2018-01-12T09:57:14.283Z,32.20
2018-01-12T09:59:44.250Z,30.55
2018-01-12T10:02:12.318Z,38.80
2018-01-12T10:04:40.401Z,38.63
2018-01-12T10:07:19.933Z,37.75
2018-01-12T10:09:49.503Z,24.90
2018-01-12T10:12:18.314Z,34.47
2018-01-12T10:14:46.377Z,31.80
2018-01-12T10:17:14.485Z,30.87
2018-01-12T10:20:02.466Z,38.43
2018-01-12T10:22:31.311Z,27.33
2018-01-12T10:24:59.370Z,32.73
2018-01-12T10:27:27.436Z,29.42
2018-01-12T10:29:57.354Z,32.23
2018-01-12T10:32:26.309Z,28.07
2018-01-12T10:35:12.213Z,35.63
2018-01-12T10:37:40.304Z,34.60
2018-01-12T10:43:18.513Z,31.27
2018-01-12T10:46:04.753Z,33.37
2018-01-12T10:48:39.661Z,31.05
2018-01-12T10:54:15.369Z,30.30
2018-01-12T10:56:44.196Z,31.13
2018-01-12T10:59:12.354Z,32.00
2018-01-12T11:01:41.188Z,31.97
2018-01-12T11:04:09.321Z,30.27
2018-01-12T11:06:37.402Z,35.73
2018-01-12T11:09:05.510Z,26.87
2018-01-12T11:11:33.580Z,30.43
2018-01-12T11:14:01.649Z,34.87
2018-01-12T11:16:29.717Z,31.50
2018-01-12T11:18:57.777Z,34.47
2018-01-12T11:21:25.837Z,34.53
2018-01-12T11:23:54.660Z,31.80
2018-01-12T11:26:23.277Z,37.42
2018-01-12T11:28:51.348Z,37.90
2018-01-12T11:31:20.258Z,34.67
2018-01-12T11:33:48.317Z,36.50
2018-01-12T11:36:16.619Z,34.63
2018-01-12T11:38:44.748Z,35.40
2018-01-12T11:41:13.549Z,29.87
2018-01-12T11:43:41.622Z,35.27
2018-01-12T11:46:09.670Z,38.83
2018-01-12T11:48:38.527Z,26.40
2018-01-12T11:51:06.586Z,40.60
2018-01-12T11:53:34.677Z,41.00
2018-01-12T11:56:02.734Z,35.57
2018-01-12T11:58:30.825Z,33.97
2018-01-12T12:00:58.882Z,39.30
2018-01-12T12:03:26.980Z,38.23
2018-01-12T12:05:55.038Z,43.70
2018-01-12T12:08:25.352Z,31.85
2018-01-12T12:10:53.669Z,37.35
2018-01-12T12:13:22.046Z,34.97
2018-01-12T12:15:50.120Z,33.40
2018-01-12T12:18:18.205Z,38.87
2018-01-12T12:20:46.377Z,35.07
2018-01-12T12:23:14.454Z,32.63
2018-01-12T12:25:42.946Z,43.35
2018-01-12T12:28:11.014Z,39.47
2018-01-12T12:30:39.095Z,36.17
2018-01-12T12:33:07.146Z,41.33
2018-01-12T12:35:35.212Z,36.93
2018-01-12T12:38:03.262Z,39.43
2018-01-12T12:43:07.329Z,41.07
2018-01-12T12:45:35.434Z,33.30
2018-01-12T12:48:03.939Z,34.00
2018-01-12T12:50:32.309Z,40.58
2018-01-12T12:53:00.796Z,48.08
2018-01-12T12:55:29.151Z,43.47
2018-01-12T12:57:57.543Z,50.80
2018-01-12T13:00:26.094Z,42.67
2018-01-12T13:02:56.182Z,34.83
2018-01-12T13:05:24.765Z,35.00
2018-01-12T13:07:53.233Z,50.20
2018-01-12T13:10:21.738Z,43.60
2018-01-12T13:12:50.249Z,44.73
2018-01-12T13:15:18.770Z,46.23
2018-01-12T13:17:47.288Z,42.83
2018-01-12T13:20:15.774Z,59.90
2018-01-12T13:22:44.261Z,43.57
2018-01-12T13:25:12.849Z,41.45
2018-01-12T13:27:41.436Z,48.13
2018-01-12T13:30:09.811Z,42.20
2018-01-12T13:32:38.305Z,39.10
2018-01-12T13:35:06.892Z,37.65
2018-01-12T13:37:35.373Z,44.03
2018-01-12T13:40:03.959Z,43.55
2018-01-12T13:42:32.391Z,57.50
2018-01-12T13:45:01.656Z,43.25
2018-01-12T13:47:30.239Z,39.63
2018-01-12T13:49:58.739Z,41.53
2018-01-12T13:52:27.212Z,49.93
2018-01-12T13:54:55.790Z,41.27
2018-01-12T13:57:25.101Z,39.23
2018-01-12T13:59:53.587Z,35.60
2018-01-12T14:02:22.013Z,31.43
2018-01-12T14:04:51.267Z,36.63
2018-01-12T14:07:19.762Z,32.33
2018-01-12T14:09:48.352Z,38.60
2018-01-12T14:12:16.832Z,34.90
2018-01-12T14:14:45.423Z,31.90
2018-01-12T14:17:13.911Z,39.70
2018-01-12T14:19:42.493Z,28.70
2018-01-12T14:22:11.044Z,35.50
2018-01-12T14:24:39.507Z,37.37
2018-01-12T14:27:08.058Z,29.83
2018-01-12T14:29:36.546Z,32.77
2018-01-12T14:32:04.593Z,33.20
2018-01-12T14:34:32.674Z,35.90
2018-01-12T14:37:00.723Z,34.92
2018-01-12T14:39:28.781Z,49.40
2018-01-12T14:41:57.597Z,40.13
2018-01-12T14:44:25.710Z,40.75
2018-01-12T14:46:54.886Z,43.53
2018-01-12T14:49:22.993Z,39.10
2018-01-12T14:51:51.041Z,35.70
2018-01-12T14:54:19.122Z,39.33
2018-01-12T14:56:47.210Z,43.53
2018-01-12T14:59:15.293Z,39.90
2018-01-12T15:01:43.361Z,49.57
2018-01-12T15:04:12.019Z,36.50
2018-01-12T15:06:40.129Z,50.87
2018-01-12T15:09:08.177Z,39.70
2018-01-12T15:11:36.246Z,44.33
2018-01-12T15:14:04.343Z,51.45
2018-01-12T15:16:32.441Z,44.30
2018-01-12T15:19:00.540Z,55.83
2018-01-12T15:21:28.598Z,48.43
2018-01-12T15:23:56.649Z,53.33
2018-01-12T15:26:25.477Z,51.33
2018-01-12T15:28:53.550Z,52.00
2018-01-12T15:31:21.609Z,58.55
2018-01-12T15:33:49.671Z,57.60
2018-01-12T15:36:17.762Z,55.87
2018-01-12T15:38:45.849Z,63.97
2018-01-12T15:41:13.922Z,51.53
2018-01-12T15:43:41.978Z,50.67
2018-01-12T15:46:10.052Z,65.43
2018-01-12T15:48:38.102Z,55.00
2018-01-12T15:51:06.221Z,59.60
2018-01-12T15:53:34.293Z,55.73
2018-01-12T15:56:02.358Z,70.03
2018-01-12T15:58:30.405Z,56.65
2018-01-12T16:00:58.977Z,65.77
2018-01-12T16:03:28.751Z,93.93
2018-01-12T16:05:57.637Z,63.03
2018-01-12T16:08:25.933Z,58.75
2018-01-12T16:10:53.994Z,66.07
2018-01-12T16:13:22.090Z,55.87
2018-01-12T16:15:50.157Z,67.30
2018-01-12T16:18:18.208Z,57.47
2018-01-12T16:20:46.274Z,56.90
2018-01-12T16:23:14.329Z,51.37
2018-01-12T16:25:43.165Z,47.47
2018-01-12T16:28:11.270Z,51.13
2018-01-12T16:30:39.429Z,50.43
2018-01-12T16:33:07.477Z,59.67
2018-01-12T16:35:35.610Z,69.97
2018-01-12T16:38:03.665Z,53.53
2018-01-12T16:40:31.741Z,58.53
2018-01-12T16:42:59.798Z,56.80
2018-01-12T16:45:27.894Z,53.30
2018-01-12T16:47:56.290Z,42.13
2018-01-12T16:50:24.380Z,49.93
2018-01-12T16:52:52.401Z,45.93
2018-01-12T16:55:20.501Z,49.67
2018-01-12T16:57:48.553Z,44.67
2018-01-12T17:00:16.637Z,51.23
2018-01-12T17:02:44.691Z,50.93
2018-01-12T17:05:13.518Z,48.07
2018-01-12T17:07:41.573Z,45.57
2018-01-12T17:10:09.678Z,85.17
2018-01-12T17:12:37.761Z,47.77
2018-01-12T17:15:05.981Z,43.57
2018-01-12T17:17:34.109Z,52.97
2018-01-12T17:20:02.180Z,47.47
2018-01-12T17:22:30.258Z,35.77
2018-01-12T17:24:58.346Z,48.50
2018-01-12T17:27:27.334Z,45.85
2018-01-12T17:29:57.269Z,46.63
2018-01-12T17:32:26.450Z,51.60
2018-01-12T17:34:54.531Z,48.33
2018-01-12T17:37:22.593Z,50.72
2018-01-12T17:39:50.681Z,48.67
2018-01-12T17:42:18.770Z,51.70
2018-01-12T17:44:47.354Z,50.13
2018-01-12T17:47:15.426Z,49.73
2018-01-12T17:49:43.486Z,43.53
2018-01-12T17:52:11.590Z,49.63
2018-01-12T17:54:39.653Z,44.53
2018-01-12T17:57:07.717Z,53.07
2018-01-12T17:59:35.813Z,42.75
2018-01-12T18:02:03.986Z,51.87
2018-01-12T18:04:32.881Z,57.13
2018-01-12T18:07:00.953Z,46.00
2018-01-12T18:09:29.001Z,60.07
2018-01-12T18:11:57.105Z,41.90
2018-01-12T18:14:25.192Z,53.40
2018-01-12T18:16:53.257Z,55.70
2018-01-12T18:19:21.313Z,53.37
2018-01-12T18:21:49.486Z,53.00
2018-01-12T18:24:17.541Z,44.80
2018-01-12T18:26:46.373Z,51.77
2018-01-12T18:29:14.635Z,64.53
2018-01-12T18:31:42.681Z,52.30
2018-01-12T18:34:11.537Z,61.37
2018-01-12T18:36:39.617Z,49.80
2018-01-12T18:39:07.665Z,55.63
2018-01-12T18:41:35.733Z,56.40
2018-01-12T18:44:03.790Z,55.50
2018-01-12T18:46:32.634Z,50.50
2018-01-12T18:49:00.708Z,64.00
2018-01-12T18:51:28.774Z,49.30
2018-01-12T18:53:58.169Z,58.03
2018-01-12T18:56:27.350Z,55.73
2018-01-12T18:58:55.422Z,59.43
2018-01-12T19:01:24.249Z,59.43
2018-01-12T19:03:52.306Z,54.08
2018-01-12T19:06:20.366Z,62.05
2018-01-12T19:08:49.205Z,53.83
2018-01-12T19:11:17.271Z,45.33
2018-01-12T19:13:45.383Z,52.20
2018-01-12T19:16:13.386Z,46.20
2018-01-12T19:18:41.441Z,60.97
2018-01-12T19:21:09.595Z,47.10
2018-01-12T19:23:37.669Z,52.73
2018-01-12T19:26:05.753Z,54.20
2018-01-12T19:28:33.920Z,65.10
2018-01-12T19:31:01.977Z,61.15
2018-01-12T19:33:30.040Z,53.57
2018-01-12T19:35:58.872Z,51.10
2018-01-12T19:38:27.791Z,54.92
2018-01-12T19:40:55.975Z,52.83
2018-01-12T19:43:24.783Z,62.53
2018-01-12T19:45:53.596Z,54.93
2018-01-12T19:48:21.743Z,58.57
2018-01-12T19:50:49.854Z,62.63
2018-01-12T19:53:17.894Z,59.87
2018-01-12T19:55:46.745Z,60.03
2018-01-12T19:58:14.868Z,70.67
2018-01-12T20:00:43.005Z,66.27
2018-01-12T20:03:11.060Z,60.63
2018-01-12T20:05:39.119Z,55.87
2018-01-12T20:08:07.234Z,59.80
2018-01-12T20:10:35.282Z,58.53
2018-01-12T20:13:03.434Z,57.57
2018-01-12T20:15:32.254Z,60.07
2018-01-12T20:18:00.409Z,59.83
2018-01-12T20:20:29.637Z,55.13
2018-01-12T20:22:57.962Z,65.55
2018-01-12T20:25:26.073Z,61.67
2018-01-12T20:27:54.893Z,62.53
2018-01-12T20:30:22.968Z,65.80
2018-01-12T20:32:51.066Z,62.30
2018-01-12T20:35:19.160Z,59.43
2018-01-12T20:37:47.325Z,59.17
2018-01-12T20:40:15.540Z,51.77
2018-01-12T20:42:43.645Z,63.07
2018-01-12T20:45:12.504Z,57.60
2018-01-12T20:47:40.555Z,68.60
2018-01-12T20:50:08.610Z,47.40
2018-01-12T20:52:37.570Z,53.13
2018-01-12T20:55:06.420Z,50.80
2018-01-12T20:57:35.314Z,62.50
2018-01-12T21:00:03.374Z,53.73
2018-01-12T21:02:31.433Z,45.70
2018-01-12T21:04:59.537Z,48.83
2018-01-12T21:07:28.341Z,51.75
2018-01-12T21:09:56.435Z,82.17
2018-01-12T21:12:24.570Z,51.40
2018-01-12T21:14:52.665Z,58.27
2018-01-12T21:17:20.790Z,51.63
2018-01-12T21:19:50.453Z,50.80
2018-01-12T21:22:18.541Z,50.90
2018-01-12T21:24:46.588Z,51.67
2018-01-12T21:27:14.678Z,54.00
2018-01-12T21:29:42.736Z,47.17
2018-01-12T21:32:10.799Z,49.47
2018-01-12T21:34:38.904Z,57.20
2018-01-12T21:37:06.962Z,56.70
2018-01-12T21:39:35.103Z,47.00
2018-01-12T21:42:03.275Z,55.10
2018-01-12T21:44:31.321Z,42.80
2018-01-12T21:46:59.420Z,55.33
2018-01-12T21:49:29.392Z,49.23
2018-01-12T21:51:58.562Z,57.23
2018-01-12T21:54:27.419Z,54.20
2018-01-12T21:56:55.474Z,50.57
2018-01-12T21:59:23.571Z,46.20
2018-01-12T22:01:52.454Z,56.60
2018-01-12T22:04:20.530Z,52.40
2018-01-12T22:06:48.593Z,52.17
2018-01-12T22:09:17.455Z,54.47
2018-01-12T22:11:46.601Z,68.17
2018-01-12T22:14:14.669Z,53.20
2018-01-12T22:16:42.911Z,57.17
2018-01-12T22:19:11.751Z,58.00
2018-01-12T22:21:39.827Z,55.20
2018-01-12T22:24:07.902Z,57.43
2018-01-12T22:26:35.981Z,56.75
2018-01-12T22:29:04.053Z,57.17
2018-01-12T22:31:32.101Z,63.67
2018-01-12T22:34:00.166Z,54.07
2018-01-12T22:36:29.814Z,53.03
2018-01-12T22:38:58.988Z,52.13
2018-01-12T22:41:27.092Z,54.60
2018-01-12T22:43:55.162Z,49.38
2018-01-12T22:46:23.209Z,58.60
2018-01-12T22:48:51.741Z,56.90
2018-01-12T22:51:19.804Z,49.80
2018-01-12T22:53:47.894Z,53.67
2018-01-12T22:56:15.961Z,64.20
2018-01-12T22:58:44.017Z,46.80
2018-01-12T23:01:12.115Z,60.43
2018-01-12T23:03:40.174Z,53.83
2018-01-12T23:06:08.227Z,46.17
2018-01-12T23:08:37.054Z,41.43
2018-01-12T23:11:05.109Z,47.63
2018-01-12T23:13:33.170Z,54.27
2018-01-12T23:16:01.226Z,52.57
2018-01-12T23:18:29.986Z,42.83
2018-01-12T23:20:58.037Z,42.87
2018-01-12T23:23:26.093Z,50.77
2018-01-12T23:25:54.137Z,52.33
2018-01-12T23:28:22.205Z,54.43
2018-01-12T23:30:51.561Z,45.53
2018-01-12T23:33:19.704Z,43.53
2018-01-12T23:35:48.560Z,41.60
2018-01-12T23:38:17.453Z,43.17
2018-01-12T23:40:45.506Z,41.77
2018-01-12T23:43:13.619Z,42.37
2018-01-12T23:45:41.657Z,39.07
2018-01-12T23:48:09.759Z,37.73
2018-01-12T23:50:38.059Z,37.37
2018-01-12T23:53:06.225Z,36.30
2018-01-12T23:55:34.273Z,35.88
2018-01-12T23:58:02.373Z,33.60
